Time;durP1;ratioP1;P1;durP2;ratioP2;P2;SDS_P1;SDS_P2;PMS_P1;PMS_P2;Temp;Humidity;BMP_temperature;BMP_pressure;BME280_temperature;BME280_humidity;BME280_pressure;Samples;Min_cycle;Max_cycle;Signal;HPM_P1;HPM_P2
2022/09/21 00:00:41;;;;;;;1.43;1.40;;;10.30;99.20;;;;;;5031472;28;20537;-85
2022/09/21 00:03:08;;;;;;;1.53;1.40;;;10.20;99.30;;;;;;5030852;28;20176;-85
2022/09/21 00:05:34;;;;;;;1.33;1.33;;;10.20;99.20;;;;;;5037148;28;20178;-84
2022/09/21 00:08:02;;;;;;;1.40;1.40;;;10.20;99.20;;;;;;5044921;28;20171;-86
2022/09/21 00:10:28;;;;;;;1.50;1.40;;;10.20;99.20;;;;;;5037031;28;20662;-85
2022/09/21 00:12:55;;;;;;;1.30;1.30;;;10.10;99.40;;;;;;5030910;28;20180;-86
2022/09/21 00:15:21;;;;;;;1.67;1.03;;;10.20;99.60;;;;;;5028882;28;20536;-85
2022/09/21 00:17:54;;;;;;;2.30;1.40;;;10.10;99.80;;;;;;5030505;28;20548;-86
2022/09/21 00:20:20;;;;;;;1.40;1.40;;;10.10;99.50;;;;;;5031213;28;20200;-86
2022/09/21 00:22:47;;;;;;;1.60;1.50;;;10.00;99.60;;;;;;5031727;28;20170;-84
2022/09/21 00:25:14;;;;;;;1.23;1.23;;;10.00;99.50;;;;;;5031380;28;20201;-86
2022/09/21 00:27:40;;;;;;;1.67;1.57;;;9.90;99.90;;;;;;5032964;28;20298;-86
2022/09/21 00:30:07;;;;;;;1.40;1.30;;;9.90;99.90;;;;;;5036226;28;20196;-83
2022/09/21 00:32:35;;;;;;;1.30;1.30;;;9.90;99.90;;;;;;5055699;28;20171;-86
2022/09/21 00:35:01;;;;;;;1.50;1.50;;;9.90;99.90;;;;;;5041885;28;20174;-83
2022/09/21 00:37:28;;;;;;;1.30;1.30;;;9.90;99.90;;;;;;5030768;28;20542;-83
2022/09/21 00:39:54;;;;;;;1.63;1.43;;;10.00;99.90;;;;;;5030157;28;20649;-84
2022/09/21 00:42:30;;;;;;;1.40;1.40;;;9.90;99.90;;;;;;5030421;28;20523;-84
2022/09/21 00:44:56;;;;;;;1.37;1.37;;;9.90;99.90;;;;;;5030194;28;20246;-83
2022/09/21 00:47:25;;;;;;;2.63;1.80;;;10.00;99.90;;;;;;5030275;28;20179;-84
2022/09/21 00:49:54;;;;;;;1.83;1.73;;;9.90;99.90;;;;;;5030477;28;20181;-83
2022/09/21 00:52:23;;;;;;;3.73;1.87;;;9.90;99.90;;;;;;5030959;28;20636;-85
2022/09/21 00:54:56;;;;;;;2.07;1.60;;;9.90;99.90;;;;;;5030249;28;20174;-85
2022/09/21 00:57:29;;;;;;;1.57;1.47;;;9.80;99.90;;;;;;5030252;28;20173;-86
2022/09/21 00:59:57;;;;;;;1.60;1.50;;;9.80;99.90;;;;;;5030082;28;20805;-84
2022/09/21 01:02:23;;;;;;;1.93;1.50;;;9.70;99.90;;;;;;5028857;28;20186;-85
2022/09/21 01:04:55;;;;;;;2.07;1.57;;;9.70;99.90;;;;;;5030286;28;20178;-84
2022/09/21 01:07:28;;;;;;;1.73;1.63;;;9.70;99.90;;;;;;5029085;28;20235;-85
2022/09/21 01:09:57;;;;;;;1.40;1.40;;;9.70;99.90;;;;;;5030782;28;20636;-85
2022/09/21 01:12:29;;;;;;;1.70;1.30;;;9.70;99.90;;;;;;5039115;28;20170;-82
2022/09/21 01:15:18;;;;;;;1.87;1.20;;;9.70;99.90;;;;;;5031343;28;20179;-85
2022/09/21 01:18:01;;;;;;;1.30;1.30;;;9.70;99.90;;;;;;5029990;28;20161;-83
2022/09/21 01:20:52;;;;;;;1.47;1.37;;;9.70;99.90;;;;;;5029601;28;20209;-83
2022/09/21 01:24:07;;;;;;;1.63;1.53;;;9.80;99.90;;;;;;5032118;28;20176;-83
2022/09/21 01:27:02;;;;;;;1.40;1.30;;;9.80;99.90;;;;;;5020719;28;20223;-84
2022/09/21 01:29:33;;;;;;;1.47;1.47;;;9.90;99.90;;;;;;5013744;28;20190;-84
2022/09/21 01:31:58;;;;;;;1.40;1.30;;;9.90;99.90;;;;;;5032352;28;20181;-83
2022/09/21 01:34:50;;;;;;;1.40;1.30;;;9.90;99.90;;;;;;5046995;28;20671;-86
2022/09/21 01:37:43;;;;;;;3.17;2.63;;;9.80;99.90;;;;;;5033587;28;20534;-84
2022/09/21 01:40:24;;;;;;;1.47;1.37;;;9.80;99.90;;;;;;5033369;28;20227;-86
2022/09/21 01:42:53;;;;;;;1.70;1.30;;;9.80;99.90;;;;;;5033392;28;20155;-85
2022/09/21 01:45:26;;;;;;;1.40;1.40;;;9.70;99.90;;;;;;5033363;28;20606;-84
2022/09/21 01:47:54;;;;;;;1.70;1.13;;;9.80;99.90;;;;;;5033591;28;20172;-83
2022/09/21 01:50:21;;;;;;;1.90;1.30;;;9.70;99.90;;;;;;5034763;28;20542;-82
2022/09/21 01:52:59;;;;;;;1.93;1.27;;;9.70;99.90;;;;;;5038416;28;20269;-84
2022/09/21 01:55:38;;;;;;;1.53;1.43;;;9.70;99.90;;;;;;5033649;28;20164;-84
2022/09/21 01:58:13;;;;;;;1.80;1.70;;;9.60;99.90;;;;;;5034152;28;20156;-84
2022/09/21 02:00:40;;;;;;;1.50;1.50;;;9.50;99.90;;;;;;5034729;28;20621;-83
2022/09/21 02:03:34;;;;;;;1.77;1.47;;;9.50;99.90;;;;;;5034467;28;20176;-84
2022/09/21 02:06:01;;;;;;;1.40;1.40;;;9.50;99.90;;;;;;5050586;28;20184;-82
2022/09/21 02:08:31;;;;;;;1.60;1.50;;;9.60;99.90;;;;;;5056843;28;20256;-84
2022/09/21 02:11:00;;;;;;;1.70;1.30;;;9.60;99.90;;;;;;5033420;28;20209;-85
2022/09/21 02:13:34;;;;;;;1.33;1.23;;;9.60;99.90;;;;;;5031690;28;20180;-87
2022/09/21 02:16:05;;;;;;;1.60;1.60;;;9.60;99.90;;;;;;5032813;28;20279;-86
2022/09/21 02:18:56;;;;;;;1.53;1.50;;;9.70;99.90;;;;;;5032678;28;20173;-85
2022/09/21 02:21:47;;;;;;;3.07;1.50;;;9.60;99.90;;;;;;5032955;28;20159;-86
2022/09/21 02:24:31;;;;;;;1.40;1.40;;;9.50;99.90;;;;;;5032831;28;20180;-85
2022/09/21 02:27:12;;;;;;;2.23;1.57;;;9.30;99.90;;;;;;5032765;28;20638;-85
2022/09/21 02:30:00;;;;;;;1.40;1.40;;;9.20;99.90;;;;;;5033261;28;20659;-86
2022/09/21 02:32:49;;;;;;;1.87;1.27;;;9.10;99.90;;;;;;5033352;28;20159;-85
2022/09/21 02:35:35;;;;;;;1.53;1.40;;;9.00;99.90;;;;;;5032789;28;20157;-85
2022/09/21 02:38:21;;;;;;;1.20;1.20;;;9.00;99.90;;;;;;5034617;28;20500;-85
2022/09/21 02:40:55;;;;;;;1.13;1.13;;;9.10;99.90;;;;;;5031778;28;20170;-86
2022/09/21 02:43:26;;;;;;;1.83;1.50;;;9.20;99.90;;;;;;5032126;28;20169;-85
2022/09/21 02:46:05;;;;;;;1.20;1.20;;;9.20;99.90;;;;;;5031735;28;20229;-85
2022/09/21 02:48:40;;;;;;;1.23;1.10;;;9.20;99.90;;;;;;5032663;28;20157;-84
2022/09/21 02:51:15;;;;;;;1.60;1.50;;;9.20;99.90;;;;;;5032389;28;20586;-83
2022/09/21 02:53:42;;;;;;;1.50;1.40;;;9.30;99.90;;;;;;5032404;28;20157;-84
2022/09/21 02:56:10;;;;;;;1.20;1.20;;;9.30;99.90;;;;;;5036553;28;20176;-84
2022/09/21 02:58:43;;;;;;;1.37;1.30;;;9.30;99.90;;;;;;5031133;28;20213;-84
2022/09/21 03:01:11;;;;;;;1.30;1.20;;;9.40;99.90;;;;;;5032130;28;20175;-86
2022/09/21 03:03:37;;;;;;;1.10;1.10;;;9.20;99.90;;;;;;5032167;28;20170;-85
2022/09/21 03:06:03;;;;;;;1.43;1.33;;;9.20;99.90;;;;;;5032018;28;20602;-86
2022/09/21 03:08:29;;;;;;;1.10;1.00;;;9.20;99.90;;;;;;5031756;28;20214;-85
2022/09/21 03:10:56;;;;;;;1.00;1.00;;;9.30;99.90;;;;;;5032071;28;20227;-86
2022/09/21 03:13:23;;;;;;;1.63;1.30;;;9.30;99.90;;;;;;5031719;28;20172;-85
2022/09/21 03:15:49;;;;;;;1.30;1.30;;;9.20;99.90;;;;;;5031658;28;20184;-85
2022/09/21 03:18:15;;;;;;;1.30;1.30;;;9.10;99.90;;;;;;5031822;28;20527;-85
2022/09/21 03:20:44;;;;;;;2.47;1.40;;;9.10;99.90;;;;;;5031460;28;20210;-85
2022/09/21 03:23:11;;;;;;;1.60;1.50;;;9.00;99.90;;;;;;5031341;28;20203;-85
2022/09/21 03:25:38;;;;;;;2.50;1.40;;;8.80;99.90;;;;;;5031288;28;20565;-85
2022/09/21 03:28:04;;;;;;;1.50;1.50;;;8.60;99.90;;;;;;5031876;28;20647;-85
2022/09/21 03:30:31;;;;;;;1.40;1.40;;;8.50;99.90;;;;;;5032379;28;20228;-84
2022/09/21 03:32:57;;;;;;;1.20;1.20;;;8.50;99.90;;;;;;5033089;28;20176;-84
2022/09/21 03:35:25;;;;;;;2.63;1.30;;;8.50;99.90;;;;;;5031986;28;20635;-84
2022/09/21 03:37:51;;;;;;;2.23;1.23;;;8.50;99.90;;;;;;5043349;28;20161;-85
2022/09/21 03:40:18;;;;;;;1.40;1.40;;;8.40;99.90;;;;;;5056598;28;20227;-85
2022/09/21 03:42:44;;;;;;;1.50;1.43;;;8.50;99.90;;;;;;5057158;28;20173;-84
2022/09/21 03:45:11;;;;;;;2.20;1.87;;;8.50;99.90;;;;;;5047268;28;20274;-85
2022/09/21 03:47:38;;;;;;;1.77;1.67;;;8.60;99.90;;;;;;5031601;28;20187;-85
2022/09/21 03:50:06;;;;;;;2.47;1.50;;;8.50;99.90;;;;;;5030999;28;20681;-86
2022/09/21 03:52:32;;;;;;;1.53;1.43;;;8.50;99.90;;;;;;5034584;28;20622;-86
2022/09/21 03:54:58;;;;;;;1.67;1.43;;;8.50;99.90;;;;;;5034857;28;20181;-87
2022/09/21 03:57:24;;;;;;;2.43;1.47;;;8.40;99.90;;;;;;5029687;28;20193;-85
2022/09/21 03:59:50;;;;;;;5.27;1.80;;;8.40;99.90;;;;;;5031511;28;20263;-86
2022/09/21 04:02:16;;;;;;;1.27;1.23;;;8.50;99.90;;;;;;5030778;28;20179;-86
2022/09/21 04:04:42;;;;;;;3.00;1.53;;;8.50;99.90;;;;;;5030877;28;20191;-86
2022/09/21 04:07:08;;;;;;;1.70;1.60;;;8.50;99.90;;;;;;5030982;28;20245;-85
2022/09/21 04:09:33;;;;;;;1.43;1.43;;;8.40;99.90;;;;;;5030779;28;20184;-86
2022/09/21 04:11:59;;;;;;;2.20;1.50;;;8.40;99.90;;;;;;5030643;28;20191;-87
2022/09/21 04:14:25;;;;;;;1.23;1.23;;;8.50;99.90;;;;;;5029425;28;20178;-86
2022/09/21 04:16:51;;;;;;;2.53;1.40;;;8.40;99.90;;;;;;5031467;28;20183;-88
2022/09/21 04:19:17;;;;;;;1.67;1.57;;;8.50;99.90;;;;;;5029842;28;20519;-88
2022/09/21 04:21:43;;;;;;;3.57;1.40;;;8.40;99.90;;;;;;5031259;28;20613;-87
2022/09/21 04:24:10;;;;;;;1.40;1.40;;;8.50;99.90;;;;;;5029160;28;20235;-86
2022/09/21 04:26:35;;;;;;;2.37;1.40;;;8.50;99.90;;;;;;5029157;28;20646;-87
2022/09/21 04:29:04;;;;;;;1.60;1.50;;;8.50;99.90;;;;;;5030963;28;20185;-87
2022/09/21 04:31:30;;;;;;;1.50;1.40;;;8.40;99.90;;;;;;5030990;28;20175;-85
2022/09/21 04:33:57;;;;;;;1.50;1.40;;;8.40;99.90;;;;;;5029438;28;20190;-87
2022/09/21 04:36:24;;;;;;;1.70;1.40;;;8.30;99.90;;;;;;5033388;28;20240;-87
2022/09/21 04:38:50;;;;;;;2.03;1.43;;;8.30;99.90;;;;;;5034459;28;20192;-88
2022/09/21 04:41:17;;;;;;;1.60;1.50;;;8.30;99.90;;;;;;5029224;28;20184;-86
2022/09/21 04:43:44;;;;;;;1.43;1.33;;;8.30;99.90;;;;;;5030571;28;20180;-86
2022/09/21 04:46:13;;;;;;;2.30;1.67;;;8.30;99.90;;;;;;5010534;28;20758;-86
2022/09/21 04:48:39;;;;;;;1.70;1.60;;;8.20;99.90;;;;;;5011717;28;20191;-84
2022/09/21 04:51:07;;;;;;;2.20;1.70;;;8.20;99.90;;;;;;5010391;28;20176;-85
2022/09/21 04:53:34;;;;;;;2.03;1.83;;;8.10;99.90;;;;;;5010281;28;20175;-86
2022/09/21 04:56:00;;;;;;;1.57;1.50;;;8.20;99.90;;;;;;5010163;28;20199;-83
2022/09/21 04:58:26;;;;;;;2.10;1.50;;;8.10;99.90;;;;;;5010487;28;20172;-85
2022/09/21 05:00:56;;;;;;;1.60;1.57;;;8.10;99.90;;;;;;5009631;28;20536;-86
2022/09/21 05:03:23;;;;;;;1.60;1.50;;;8.20;99.90;;;;;;5014217;28;20667;-87
2022/09/21 05:05:52;;;;;;;1.70;1.60;;;8.30;99.90;;;;;;5010585;28;20195;-87
2022/09/21 05:10:01;;;;;;;2.13;1.90;;;8.20;99.90;;;;;;5011936;28;20229;-85
2022/09/21 05:11:11;;;;;;;2.30;2.03;;;8.20;99.90;;;;;;5011899;28;20177;-85
2022/09/21 05:13:38;;;;;;;2.23;1.73;;;8.20;99.90;;;;;;5025225;28;20176;-87
2022/09/21 05:16:05;;;;;;;1.83;1.73;;;8.20;99.90;;;;;;5027910;28;20214;-88
2022/09/21 05:18:31;;;;;;;2.10;1.90;;;8.30;99.90;;;;;;5022821;28;20191;-85
2022/09/21 05:20:59;;;;;;;1.77;1.67;;;8.30;99.90;;;;;;5020757;28;20218;-87
2022/09/21 05:23:28;;;;;;;1.57;1.53;;;8.40;99.90;;;;;;5018968;28;20173;-88
2022/09/21 05:25:55;;;;;;;1.57;1.47;;;8.40;99.90;;;;;;5017367;28;20204;-87
2022/09/21 05:28:21;;;;;;;2.73;2.00;;;8.40;99.90;;;;;;5013786;28;20261;-88
2022/09/21 05:30:55;;;;;;;2.47;1.67;;;8.40;99.90;;;;;;5012275;28;20672;-86
2022/09/21 05:33:21;;;;;;;1.90;1.80;;;8.60;99.90;;;;;;5014521;28;20169;-87
2022/09/21 05:36:17;;;;;;;3.17;1.70;;;8.60;99.90;;;;;;5013649;28;20252;-87
2022/09/21 05:38:44;;;;;;;1.80;1.70;;;8.60;99.90;;;;;;5010526;28;20658;-87
2022/09/21 05:41:11;;;;;;;1.70;1.60;;;8.60;99.90;;;;;;5010364;28;20601;-87
2022/09/21 05:43:37;;;;;;;1.80;1.70;;;8.70;99.90;;;;;;5010293;28;20187;-87
2022/09/21 05:46:17;;;;;;;2.00;1.90;;;8.70;99.90;;;;;;5028836;28;20228;-87
2022/09/21 05:48:50;;;;;;;3.00;1.90;;;8.70;99.90;;;;;;5029799;28;20153;-88
2022/09/21 05:51:43;;;;;;;2.23;2.13;;;8.80;99.90;;;;;;5030259;28;20165;-88
2022/09/21 05:54:47;;;;;;;3.13;1.80;;;8.80;99.90;;;;;;5029940;28;20172;-86
2022/09/21 05:57:38;;;;;;;6.83;2.33;;;8.90;99.90;;;;;;5030176;28;20206;-86
2022/09/21 06:00:19;;;;;;;1.97;1.87;;;8.90;99.90;;;;;;5029899;28;20758;-85
2022/09/21 06:03:25;;;;;;;2.83;2.17;;;8.90;99.90;;;;;;5030628;28;20178;-86
2022/09/21 06:05:50;;;;;;;4.00;2.10;;;9.10;99.90;;;;;;5029681;28;20209;-85
2022/09/21 06:08:17;;;;;;;4.60;1.70;;;9.20;99.90;;;;;;5029441;28;20590;-86
2022/09/21 06:10:42;;;;;;;6.77;2.43;;;9.20;99.90;;;;;;5029467;28;20596;-86
2022/09/21 06:13:08;;;;;;;4.37;2.00;;;9.20;99.90;;;;;;5028143;28;20205;-85
2022/09/21 06:15:37;;;;;;;4.80;1.80;;;9.40;99.90;;;;;;5030684;28;20708;-85
2022/09/21 06:18:04;;;;;;;6.23;1.83;;;9.40;99.90;;;;;;5031621;28;20181;-85
2022/09/21 06:20:30;;;;;;;6.93;2.07;;;9.50;99.90;;;;;;5034368;28;20214;-83
2022/09/21 06:23:07;;;;;;;5.03;2.30;;;9.60;99.90;;;;;;5033908;28;20180;-84
2022/09/21 06:25:34;;;;;;;3.30;2.53;;;9.60;99.90;;;;;;5032694;28;20169;-85
2022/09/21 06:28:08;;;;;;;4.67;1.90;;;9.70;99.90;;;;;;5032828;28;20175;-85
2022/09/21 06:30:35;;;;;;;3.63;1.87;;;9.80;99.90;;;;;;5032555;28;20263;-85
2022/09/21 06:33:02;;;;;;;5.37;1.80;;;9.80;99.90;;;;;;5032599;28;20626;-85
2022/09/21 06:35:29;;;;;;;2.47;1.77;;;9.90;99.90;;;;;;5032596;28;20556;-85
2022/09/21 06:38:04;;;;;;;2.53;1.53;;;10.00;99.90;;;;;;5032253;28;20177;-84
2022/09/21 06:40:31;;;;;;;1.80;1.60;;;10.00;99.90;;;;;;5032507;28;20238;-87
2022/09/21 06:42:58;;;;;;;4.10;1.87;;;10.10;99.90;;;;;;5032580;28;20696;-87
2022/09/21 06:45:28;;;;;;;1.60;1.50;;;10.10;99.90;;;;;;5032283;28;20705;-88
2022/09/21 06:47:54;;;;;;;1.50;1.50;;;10.10;99.90;;;;;;5036242;28;20176;-87
2022/09/21 06:50:20;;;;;;;2.23;2.00;;;10.20;99.90;;;;;;5053770;28;20378;-87
2022/09/21 06:52:46;;;;;;;3.40;1.63;;;10.30;99.90;;;;;;5055358;28;20194;-86
2022/09/21 06:55:12;;;;;;;4.53;1.80;;;10.40;99.90;;;;;;5044583;28;20634;-86
2022/09/21 06:57:39;;;;;;;1.80;1.70;;;10.40;99.90;;;;;;5031287;28;20682;-87
2022/09/21 07:00:08;;;;;;;2.73;1.43;;;10.50;99.90;;;;;;5032450;28;20294;-86
2022/09/21 07:02:34;;;;;;;2.00;1.30;;;10.60;99.80;;;;;;5030984;28;20257;-87
2022/09/21 07:05:00;;;;;;;1.30;1.27;;;10.60;99.30;;;;;;5032067;28;20685;-86
2022/09/21 07:07:30;;;;;;;1.23;1.13;;;10.80;99.00;;;;;;5038733;28;20629;-84
2022/09/21 07:09:59;;;;;;;1.43;1.10;;;10.90;98.40;;;;;;5036957;28;20172;-88
2022/09/21 07:12:33;;;;;;;1.13;1.00;;;11.00;98.20;;;;;;5031939;28;20177;-86
2022/09/21 07:15:00;;;;;;;1.37;1.27;;;11.10;98.60;;;;;;5031784;28;20629;-87
2022/09/21 07:17:31;;;;;;;0.90;0.90;;;11.20;98.20;;;;;;5032430;28;20197;-86
2022/09/21 07:19:56;;;;;;;0.97;0.97;;;11.30;97.40;;;;;;5031915;28;20659;-87
2022/09/21 07:22:23;;;;;;;1.17;1.00;;;11.30;97.10;;;;;;5030225;28;20233;-85
2022/09/21 07:24:49;;;;;;;1.13;1.00;;;11.40;96.90;;;;;;5031615;28;20166;-87
2022/09/21 07:27:15;;;;;;;1.33;1.10;;;11.60;96.90;;;;;;5031799;28;20245;-87
2022/09/21 07:29:41;;;;;;;0.90;0.90;;;11.60;96.70;;;;;;5033616;28;20181;-87
2022/09/21 07:32:08;;;;;;;1.00;1.00;;;11.80;96.40;;;;;;5042177;28;20180;-86
2022/09/21 07:34:36;;;;;;;1.30;1.10;;;11.80;96.50;;;;;;5040110;28;20183;-87
2022/09/21 07:37:02;;;;;;;3.20;1.00;;;11.80;96.60;;;;;;5036363;28;20173;-87
2022/09/21 07:39:28;;;;;;;1.20;1.10;;;11.90;96.10;;;;;;5032253;28;20192;-88
2022/09/21 07:41:54;;;;;;;1.40;1.30;;;12.00;96.20;;;;;;5030203;28;20178;-87
2022/09/21 07:44:21;;;;;;;1.20;1.10;;;12.10;96.10;;;;;;5031459;28;20259;-86
2022/09/21 07:46:50;;;;;;;0.80;0.80;;;12.20;96.30;;;;;;5031593;28;20167;-87
2022/09/21 07:49:16;;;;;;;2.87;1.00;;;12.30;95.20;;;;;;5032135;28;20171;-86
2022/09/21 07:51:42;;;;;;;3.03;1.03;;;12.30;95.40;;;;;;5034144;28;20725;-87
2022/09/21 07:54:09;;;;;;;1.00;1.00;;;12.40;95.40;;;;;;5033660;28;20177;-86
2022/09/21 07:56:38;;;;;;;0.90;0.90;;;12.40;95.10;;;;;;5031802;28;20273;-87
2022/09/21 07:59:04;;;;;;;2.83;1.33;;;12.50;94.30;;;;;;5031496;28;20203;-87
2022/09/21 08:01:32;;;;;;;0.90;0.90;;;12.50;94.70;;;;;;5031974;28;20526;-87
2022/09/21 08:03:59;;;;;;;2.80;1.30;;;12.60;94.50;;;;;;5031363;28;20520;-86
2022/09/21 08:06:29;;;;;;;1.00;1.00;;;12.70;94.70;;;;;;5032685;28;20270;-85
2022/09/21 08:08:55;;;;;;;1.23;0.80;;;12.80;94.00;;;;;;5032580;28;20252;-85
2022/09/21 08:11:21;;;;;;;0.90;0.90;;;12.90;94.00;;;;;;5031157;28;20263;-87
2022/09/21 08:13:50;;;;;;;2.00;1.00;;;12.90;93.90;;;;;;5029643;28;20540;-86
2022/09/21 08:16:16;;;;;;;1.00;1.00;;;12.90;93.40;;;;;;5029562;28;20183;-86
2022/09/21 08:18:42;;;;;;;0.70;0.70;;;13.00;93.70;;;;;;5030881;28;20528;-87
2022/09/21 08:21:10;;;;;;;1.27;1.17;;;13.10;93.30;;;;;;5030972;28;20258;-87
2022/09/21 08:23:39;;;;;;;1.70;1.00;;;13.10;93.30;;;;;;5031476;28;20231;-88
2022/09/21 08:26:06;;;;;;;1.83;1.10;;;13.10;93.10;;;;;;5031400;28;20199;-87
2022/09/21 08:28:33;;;;;;;2.50;1.00;;;13.20;93.30;;;;;;5041795;28;20164;-86
2022/09/21 08:31:07;;;;;;;1.00;0.90;;;13.20;93.30;;;;;;5055011;28;20173;-85
2022/09/21 08:33:33;;;;;;;1.00;1.00;;;13.30;93.50;;;;;;5040012;28;20172;-88
2022/09/21 08:36:00;;;;;;;1.00;1.00;;;13.30;93.40;;;;;;5031497;28;20185;-87
2022/09/21 08:38:31;;;;;;;1.00;1.00;;;13.50;93.30;;;;;;5030955;28;20160;-85
2022/09/21 08:40:57;;;;;;;1.30;1.30;;;13.60;92.90;;;;;;5030721;28;20188;-86
2022/09/21 08:43:41;;;;;;;1.10;1.00;;;13.60;92.60;;;;;;5030479;28;20179;-85
2022/09/21 08:46:16;;;;;;;2.00;1.10;;;13.60;92.80;;;;;;5030370;28;20248;-85
2022/09/21 08:48:47;;;;;;;0.90;0.90;;;13.50;92.30;;;;;;5030264;28;20192;-86
2022/09/21 08:51:20;;;;;;;0.80;0.80;;;13.50;90.90;;;;;;5030279;28;20176;-87
2022/09/21 08:53:51;;;;;;;0.60;0.60;;;13.50;91.30;;;;;;5030610;28;20153;-88
2022/09/21 08:56:18;;;;;;;0.73;0.73;;;13.50;90.00;;;;;;5062424;28;20180;-86
2022/09/21 08:58:44;;;;;;;1.50;1.40;;;13.50;89.80;;;;;;5036210;28;20185;-88
2022/09/21 09:01:18;;;;;;;1.03;0.57;;;13.60;89.40;;;;;;5046611;28;20257;-87
2022/09/21 09:04:23;;;;;;;0.77;0.77;;;13.60;89.30;;;;;;5032506;28;20658;-88
2022/09/21 09:07:09;;;;;;;0.73;0.73;;;13.50;88.90;;;;;;5009393;28;20207;-88
2022/09/21 09:09:43;;;;;;;0.80;0.80;;;13.60;88.70;;;;;;5030454;28;20176;-87
2022/09/21 09:12:15;;;;;;;0.90;0.90;;;13.60;88.40;;;;;;5030330;28;20160;-88
2022/09/21 09:15:12;;;;;;;0.70;0.70;;;13.60;88.80;;;;;;5030225;28;20713;-89
2022/09/21 09:17:47;;;;;;;0.60;0.60;;;13.60;88.60;;;;;;5028868;28;20173;-87
2022/09/21 09:20:20;;;;;;;0.53;0.53;;;13.60;88.70;;;;;;5030125;28;20759;-88
2022/09/21 09:23:01;;;;;;;1.43;0.87;;;13.80;88.00;;;;;;5030578;28;20156;-89
2022/09/21 09:25:36;;;;;;;0.80;0.60;;;13.90;87.80;;;;;;5032581;28;20175;-88
2022/09/21 09:28:21;;;;;;;0.53;0.53;;;14.20;86.70;;;;;;5030650;28;20892;-87
2022/09/21 09:30:57;;;;;;;0.77;0.70;;;14.40;85.90;;;;;;5030862;28;20210;-85
2022/09/21 09:33:52;;;;;;;0.50;0.50;;;14.60;85.90;;;;;;5028753;28;20169;-85
2022/09/21 09:36:18;;;;;;;1.47;0.70;;;14.70;85.90;;;;;;5026284;28;20644;-85
2022/09/21 09:38:59;;;;;;;0.80;0.80;;;14.70;86.30;;;;;;5028771;28;20181;-87
2022/09/21 09:41:33;;;;;;;1.30;0.90;;;14.60;86.40;;;;;;5030415;28;20193;-86
2022/09/21 09:44:41;;;;;;;0.83;0.83;;;14.60;86.70;;;;;;5030640;28;20168;-85
2022/09/21 09:47:25;;;;;;;0.80;0.80;;;14.70;87.00;;;;;;5028415;28;20186;-84
2022/09/21 09:49:53;;;;;;;1.00;0.73;;;14.90;86.20;;;;;;5033049;28;20537;-85
2022/09/21 09:52:19;;;;;;;0.73;0.73;;;14.80;86.70;;;;;;5034022;28;20674;-84
2022/09/21 09:54:46;;;;;;;0.80;0.80;;;14.80;86.50;;;;;;5034678;28;20200;-83
2022/09/21 09:57:12;;;;;;;0.60;0.60;;;14.70;87.70;;;;;;5033658;28;20196;-83
2022/09/21 09:59:47;;;;;;;1.00;1.00;;;14.70;84.50;;;;;;5032113;28;20216;-85
2022/09/21 10:02:25;;;;;;;0.57;0.50;;;14.70;83.80;;;;;;5034750;28;20156;-88
2022/09/21 10:05:04;;;;;;;0.63;0.63;;;14.70;83.40;;;;;;5034613;28;20643;-88
2022/09/21 10:07:47;;;;;;;1.40;0.80;;;14.60;83.50;;;;;;5052278;28;20228;-86
2022/09/21 10:10:22;;;;;;;0.90;0.90;;;14.70;83.90;;;;;;5053137;28;20251;-85
2022/09/21 10:12:51;;;;;;;1.00;0.90;;;14.80;84.10;;;;;;5033013;28;20175;-84
2022/09/21 10:15:19;;;;;;;0.67;0.67;;;14.90;84.10;;;;;;5034601;28;20183;-88
2022/09/21 10:17:47;;;;;;;0.60;0.60;;;14.90;83.70;;;;;;5032528;28;20192;-86
2022/09/21 10:20:19;;;;;;;0.60;0.60;;;15.00;84.30;;;;;;5033420;28;20212;-87
2022/09/21 10:22:48;;;;;;;0.80;0.80;;;15.20;83.90;;;;;;5033167;28;20192;-87
2022/09/21 10:25:19;;;;;;;0.90;0.90;;;15.20;82.50;;;;;;5033300;28;20726;-88
2022/09/21 10:27:48;;;;;;;0.70;0.70;;;15.30;83.10;;;;;;5036636;28;20160;-87
2022/09/21 10:30:29;;;;;;;0.60;0.60;;;15.30;83.20;;;;;;5033307;28;20177;-88
2022/09/21 10:32:56;;;;;;;0.77;0.77;;;15.40;83.90;;;;;;5032882;28;20241;-87
2022/09/21 10:35:23;;;;;;;0.83;0.83;;;15.30;82.80;;;;;;5032768;28;20173;-86
2022/09/21 10:38:15;;;;;;;1.40;1.30;;;15.30;84.20;;;;;;5032952;28;20176;-88
2022/09/21 10:40:43;;;;;;;0.80;0.80;;;15.50;83.70;;;;;;5032760;28;20204;-88
2022/09/21 10:43:32;;;;;;;0.80;0.80;;;15.50;83.70;;;;;;5032736;28;20176;-87
2022/09/21 10:45:58;;;;;;;1.00;1.00;;;15.60;84.30;;;;;;5032551;28;20690;-88
2022/09/21 10:48:26;;;;;;;0.80;0.80;;;15.60;84.90;;;;;;5042007;28;20180;-85
2022/09/21 10:50:55;;;;;;;4.43;0.87;;;;;;;;;;5041486;28;20168;-86
2022/09/21 10:53:30;;;;;;;0.80;0.80;;;15.70;83.60;;;;;;5033138;28;20560;-84
2022/09/21 10:56:11;;;;;;;1.80;1.70;;;15.90;85.10;;;;;;5031219;28;20177;-84
2022/09/21 10:58:38;;;;;;;0.90;0.90;;;15.80;84.30;;;;;;5032425;28;20253;-86
2022/09/21 11:01:30;;;;;;;0.80;0.80;;;15.80;83.80;;;;;;5033916;28;20747;-86
2022/09/21 11:03:56;;;;;;;0.80;0.80;;;15.80;83.60;;;;;;5030310;28;20193;-87
2022/09/21 11:06:36;;;;;;;1.33;1.00;;;15.80;84.00;;;;;;5032425;28;20191;-87
2022/09/21 11:09:13;;;;;;;0.93;0.93;;;15.80;84.10;;;;;;5032323;28;20168;-84
2022/09/21 11:11:52;;;;;;;1.13;0.80;;;15.90;84.30;;;;;;5032229;28;20661;-85
2022/09/21 11:14:23;;;;;;;0.80;0.80;;;16.00;81.30;;;;;;5031991;28;20582;-85
2022/09/21 11:17:20;;;;;;;0.60;0.60;;;16.10;82.00;;;;;;5032464;28;20178;-86
2022/09/21 11:19:54;;;;;;;1.30;1.20;;;16.10;82.50;;;;;;5012025;28;20313;-85
2022/09/21 11:22:42;;;;;;;1.00;0.90;;;16.20;82.70;;;;;;5032182;28;20635;-86
2022/09/21 11:25:21;;;;;;;0.70;0.70;;;16.30;81.10;;;;;;5032334;28;20222;-87
2022/09/21 11:27:55;;;;;;;0.63;0.60;;;16.40;81.80;;;;;;5031759;28;20267;-85
2022/09/21 11:30:21;;;;;;;0.63;0.63;;;16.50;82.20;;;;;;5033154;28;20178;-84
2022/09/21 11:33:24;;;;;;;0.60;0.60;;;16.60;81.60;;;;;;5032139;28;20659;-84
2022/09/21 11:36:07;;;;;;;2.27;0.60;;;16.60;82.40;;;;;;5032094;28;20200;-86
2022/09/21 11:38:57;;;;;;;1.13;0.70;;;16.60;81.00;;;;;;5037094;28;20276;-85
2022/09/21 11:41:41;;;;;;;1.30;1.30;;;16.50;81.80;;;;;;5032727;28;20247;-83
2022/09/21 11:44:18;;;;;;;0.60;0.60;;;16.50;81.50;;;;;;5052000;28;20224;-84
2022/09/21 11:47:25;;;;;;;0.70;0.70;;;16.40;81.40;;;;;;5037304;28;20190;-86
2022/09/21 11:50:08;;;;;;;0.70;0.70;;;16.20;81.50;;;;;;5031408;28;20189;-85
2022/09/21 11:52:50;;;;;;;0.50;0.50;;;16.30;82.10;;;;;;5031372;28;20269;-86
2022/09/21 11:55:22;;;;;;;1.00;0.60;;;16.40;81.60;;;;;;5031360;28;20637;-86
2022/09/21 11:58:01;;;;;;;1.70;0.70;;;16.40;82.10;;;;;;5031118;28;20172;-84
2022/09/21 12:00:39;;;;;;;0.70;0.70;;;16.30;82.00;;;;;;5030746;28;20193;-84
2022/09/21 12:03:46;;;;;;;0.33;0.33;;;16.30;81.90;;;;;;5031000;28;20245;-86
2022/09/21 12:06:27;;;;;;;0.50;0.43;;;16.30;82.00;;;;;;5029923;28;20180;-85
2022/09/21 12:09:17;;;;;;;0.70;0.70;;;16.30;81.40;;;;;;5032133;28;20173;-89
2022/09/21 12:12:31;;;;;;;0.40;0.40;;;16.20;80.30;;;;;;5030901;28;20180;-86
2022/09/21 12:15:17;;;;;;;3.00;0.60;;;16.20;79.90;;;;;;5026990;28;20261;-84
2022/09/21 12:18:33;;;;;;;1.10;1.10;;;16.20;79.60;;;;;;5030998;28;20236;-84
2022/09/21 12:21:20;;;;;;;1.70;0.70;;;16.30;78.80;;;;;;5021661;28;20299;-84
2022/09/21 12:23:56;;;;;;;3.13;1.80;;;16.40;78.30;;;;;;5030680;28;20162;-86
2022/09/21 12:26:32;;;;;;;0.80;0.80;;;16.50;78.00;;;;;;5029536;28;20169;-84
2022/09/21 12:29:06;;;;;;;0.73;0.70;;;16.40;77.10;;;;;;5030674;28;20183;-86
2022/09/21 12:32:02;;;;;;;0.57;0.57;;;16.40;77.70;;;;;;5030587;28;20612;-85
2022/09/21 12:34:38;;;;;;;0.60;0.60;;;16.60;77.30;;;;;;5030746;28;20187;-86
2022/09/21 12:37:24;;;;;;;0.70;0.70;;;16.70;77.60;;;;;;5038788;28;20295;-85
2022/09/21 12:40:02;;;;;;;0.70;0.70;;;16.80;77.10;;;;;;5036500;28;20674;-88
2022/09/21 12:42:40;;;;;;;0.37;0.30;;;16.80;77.10;;;;;;5031118;28;20575;-87
2022/09/21 12:45:14;;;;;;;0.40;0.40;;;16.70;76.60;;;;;;5030099;28;20224;-87
2022/09/21 12:47:52;;;;;;;0.50;0.50;;;16.60;76.60;;;;;;5029223;28;20208;-86
2022/09/21 12:51:14;;;;;;;0.63;0.63;;;16.60;76.80;;;;;;5030311;28;20162;-86
2022/09/21 12:53:47;;;;;;;0.50;0.50;;;16.50;77.90;;;;;;4968822;28;20581;-87
2022/09/21 12:56:41;;;;;;;0.67;0.67;;;16.50;78.00;;;;;;4952804;28;20669;-87
2022/09/21 12:59:44;;;;;;;0.40;0.40;;;16.40;77.70;;;;;;4968811;28;20232;-87
2022/09/21 13:02:13;;;;;;;0.40;0.40;;;16.60;76.80;;;;;;4968688;28;20185;-86
2022/09/21 13:04:41;;;;;;;0.50;0.50;;;16.70;76.30;;;;;;4968666;28;20181;-88
2022/09/21 13:07:19;;;;;;;0.40;0.40;;;16.90;76.40;;;;;;4968510;28;20795;-88
2022/09/21 13:09:46;;;;;;;0.53;0.53;;;17.10;76.20;;;;;;4968598;28;20351;-87
2022/09/21 13:12:12;;;;;;;0.50;0.50;;;17.20;77.30;;;;;;4968605;28;20587;-87
2022/09/21 13:14:44;;;;;;;0.40;0.40;;;17.30;76.10;;;;;;4970180;28;20193;-86
2022/09/21 13:17:28;;;;;;;0.50;0.50;;;17.30;75.70;;;;;;4955001;28;20181;-85
2022/09/21 13:20:15;;;;;;;0.50;0.50;;;17.10;76.80;;;;;;4990913;28;20214;-87
2022/09/21 13:22:41;;;;;;;1.47;0.60;;;17.00;75.70;;;;;;4990492;28;20181;-87
2022/09/21 13:25:24;;;;;;;0.50;0.50;;;16.80;76.00;;;;;;4980163;28;20569;-85